Time;durP1;ratioP1;P1;durP2;ratioP2;P2;SDS_P1;SDS_P2;PMS_P1;PMS_P2;Temp;Humidity;BMP_temperature;BMP_pressure;BME280_temperature;BME280_humidity;BME280_pressure;Samples;Min_cycle;Max_cycle;Signal;HPM_P1;HPM_P2
2021/05/08 00:01:27;;;;;;;;;;;18.40;59.00;;;;;;5052283;28;19961;-78
2021/05/08 00:03:55;;;;;;;;;;;18.40;59.00;;;;;;5037139;28;19924;-79
2021/05/08 00:06:36;;;;;;;;;;;18.40;59.00;;;;;;5053171;28;20341;-79
2021/05/08 00:09:06;;;;;;;;;;;18.40;59.00;;;;;;5028754;28;19929;-80
2021/05/08 00:11:45;;;;;;;;;;;18.40;59.00;;;;;;5029668;28;19913;-79
2021/05/08 00:14:23;;;;;;;;;;;18.40;58.90;;;;;;5032979;28;20379;-79
2021/05/08 00:16:48;;;;;;;;;;;18.40;58.90;;;;;;5029100;28;19960;-79
2021/05/08 00:19:19;;;;;;;;;;;18.40;58.90;;;;;;5031482;28;19952;-79
2021/05/08 00:21:44;;;;;;;;;;;18.40;58.90;;;;;;5046826;28;19936;-79
2021/05/08 00:24:17;;;;;;;;;;;18.30;58.80;;;;;;5047978;28;19913;-80
2021/05/08 00:26:46;;;;;;;;;;;18.30;58.80;;;;;;5030601;28;19943;-80
2021/05/08 00:29:24;;;;;;;;;;;18.40;58.80;;;;;;5032707;28;19941;-79
2021/05/08 00:31:54;;;;;;;;;;;18.40;58.80;;;;;;5034237;28;19921;-79
2021/05/08 00:34:25;;;;;;;;;;;18.30;58.80;;;;;;5025532;28;19917;-80
2021/05/08 00:36:50;;;;;;;;;;;18.30;58.80;;;;;;5021472;28;20294;-80
2021/05/08 00:39:22;;;;;;;;;;;18.30;58.80;;;;;;5033157;28;19913;-79
2021/05/08 00:41:52;;;;;;;;;;;18.40;58.80;;;;;;5032668;28;19921;-79
2021/05/08 00:44:20;;;;;;;;;;;18.30;58.80;;;;;;5033537;28;19935;-79
2021/05/08 00:46:51;;;;;;;;;;;18.30;58.70;;;;;;5021909;28;19973;-79
2021/05/08 00:49:31;;;;;;;;;;;18.30;58.70;;;;;;5026904;28;20396;-79
2021/05/08 00:52:00;;;;;;;;;;;18.30;58.60;;;;;;5031376;28;19920;-79
2021/05/08 00:54:26;;;;;;;;;;;18.30;58.60;;;;;;5043345;28;19920;-79
2021/05/08 00:56:55;;;;;;;;;;;18.30;58.60;;;;;;5030456;28;19913;-79
2021/05/08 00:59:32;;;;;;;;;;;18.30;58.60;;;;;;5031909;28;20051;-79
2021/05/08 01:01:58;;;;;;;;;;;18.30;58.60;;;;;;5029295;28;20427;-79
2021/05/08 01:04:24;;;;;;;;;;;18.30;58.60;;;;;;5025650;28;19912;-79
2021/05/08 01:06:55;;;;;;;;;;;18.30;58.60;;;;;;5033664;28;19913;-79
2021/05/08 01:09:25;;;;;;;;;;;18.30;58.50;;;;;;5047405;28;20375;-80
2021/05/08 01:11:56;;;;;;;;;;;18.30;58.50;;;;;;5024354;28;19979;-80
2021/05/08 01:14:27;;;;;;;;;;;18.30;58.50;;;;;;5042445;28;20259;-80
2021/05/08 01:16:52;;;;;;;;;;;18.30;58.50;;;;;;5029548;28;20367;-80
2021/05/08 01:19:19;;;;;;;;;;;18.30;58.50;;;;;;5036381;28;19913;-80
2021/05/08 01:21:48;;;;;;;;;;;18.30;58.40;;;;;;5032863;28;19924;-79
2021/05/08 01:24:18;;;;;;;;;;;18.30;58.40;;;;;;5031208;28;20000;-80
2021/05/08 01:26:47;;;;;;;;;;;18.30;58.40;;;;;;5045094;28;19913;-79
2021/05/08 01:29:13;;;;;;;;;;;18.30;58.40;;;;;;5029789;28;19939;-79
2021/05/08 01:31:46;;;;;;;;;;;18.30;58.40;;;;;;5029275;28;20350;-79
2021/05/08 01:34:17;;;;;;;;;;;18.30;58.40;;;;;;5031978;28;20321;-79
2021/05/08 01:36:42;;;;;;;;;;;18.30;58.40;;;;;;5039088;28;20389;-79
2021/05/08 01:39:08;;;;;;;;;;;18.30;58.40;;;;;;5028563;28;19913;-80
2021/05/08 01:41:34;;;;;;;;;;;18.30;58.30;;;;;;5023972;28;19917;-80
2021/05/08 01:44:04;;;;;;;;;;;18.30;58.30;;;;;;5032979;28;20329;-79
2021/05/08 01:46:37;;;;;;;;;;;18.30;58.30;;;;;;5033810;28;20007;-79
2021/05/08 01:49:07;;;;;;;;;;;18.30;58.30;;;;;;5016475;28;19983;-80
2021/05/08 01:51:33;;;;;;;;;;;18.30;58.30;;;;;;5026215;28;20389;-80
2021/05/08 01:53:58;;;;;;;;;;;18.30;58.30;;;;;;5023602;28;19917;-85
2021/05/08 01:56:24;;;;;;;;;;;18.30;58.30;;;;;;5035067;28;19913;-79
2021/05/08 01:58:55;;;;;;;;;;;18.30;58.30;;;;;;5015436;28;20414;-80
2021/05/08 02:01:27;;;;;;;;;;;18.30;58.20;;;;;;5046393;28;19917;-78
2021/05/08 02:04:13;;;;;;;;;;;18.30;58.30;;;;;;5032735;28;19921;-78
2021/05/08 02:06:44;;;;;;;;;;;18.20;58.30;;;;;;5034788;28;20035;-79
2021/05/08 02:09:12;;;;;;;;;;;18.30;58.40;;;;;;5037239;28;20290;-79
2021/05/08 02:11:38;;;;;;;;;;;18.30;58.30;;;;;;5027636;28;20270;-79
2021/05/08 02:14:06;;;;;;;;;;;18.30;58.30;;;;;;5038860;28;19910;-79
2021/05/08 02:16:44;;;;;;;;;;;18.30;58.30;;;;;;5033977;28;19936;-79
2021/05/08 02:19:15;;;;;;;;;;;18.30;58.20;;;;;;5037666;28;19932;-78
2021/05/08 02:21:45;;;;;;;;;;;18.30;58.30;;;;;;5035461;28;20277;-79
2021/05/08 02:24:16;;;;;;;;;;;18.20;58.20;;;;;;5034654;28;19913;-80
2021/05/08 02:26:41;;;;;;;;;;;18.30;58.20;;;;;;5033330;28;19913;-79
2021/05/08 02:29:12;;;;;;;;;;;18.20;58.20;;;;;;5038950;28;19955;-79
2021/05/08 02:31:42;;;;;;;;;;;18.20;58.20;;;;;;5038559;28;19913;-79
2021/05/08 02:34:11;;;;;;;;;;;18.20;58.20;;;;;;5037082;28;19913;-79
2021/05/08 02:36:41;;;;;;;;;;;18.20;58.10;;;;;;5038784;28;19917;-79
2021/05/08 02:39:21;;;;;;;;;;;18.20;58.20;;;;;;5038062;28;20362;-79
2021/05/08 02:41:46;;;;;;;;;;;18.20;58.20;;;;;;5032655;28;19943;-79
2021/05/08 02:44:17;;;;;;;;;;;18.20;58.10;;;;;;5037835;28;20413;-79
2021/05/08 02:46:55;;;;;;;;;;;18.20;58.20;;;;;;5053020;28;19921;-79
2021/05/08 02:49:20;;;;;;;;;;;18.20;58.10;;;;;;5032424;28;20358;-80
2021/05/08 02:52:00;;;;;;;;;;;18.20;58.20;;;;;;5037198;28;19913;-79
2021/05/08 02:54:26;;;;;;;;;;;18.20;58.10;;;;;;5051291;28;19917;-79
2021/05/08 02:56:56;;;;;;;;;;;18.20;58.20;;;;;;5038032;28;19936;-79
2021/05/08 02:59:22;;;;;;;;;;;18.20;58.20;;;;;;5032777;28;19913;-79
2021/05/08 03:01:50;;;;;;;;;;;18.20;58.20;;;;;;5048876;28;20372;-80
2021/05/08 03:04:16;;;;;;;;;;;18.20;58.20;;;;;;5036092;28;19963;-80
2021/05/08 03:06:46;;;;;;;;;;;18.20;58.10;;;;;;5037709;28;19921;-79
2021/05/08 03:09:12;;;;;;;;;;;18.20;58.10;;;;;;5037782;28;20344;-79
2021/05/08 03:11:37;;;;;;;;;;;18.20;58.10;;;;;;5029732;28;19913;-79
2021/05/08 03:14:03;;;;;;;;;;;18.20;58.10;;;;;;5033833;28;19917;-79
2021/05/08 03:16:36;;;;;;;;;;;18.20;58.10;;;;;;5035410;28;19920;-79
2021/05/08 03:19:02;;;;;;;;;;;18.20;58.10;;;;;;5048369;28;19922;-79
2021/05/08 03:21:28;;;;;;;;;;;18.20;58.10;;;;;;5033917;28;19921;-79
2021/05/08 03:23:53;;;;;;;;;;;18.20;58.00;;;;;;5025414;28;20003;-79
2021/05/08 03:26:22;;;;;;;;;;;18.20;58.00;;;;;;5033461;28;20014;-79
2021/05/08 03:28:47;;;;;;;;;;;18.20;58.00;;;;;;5029732;28;20317;-79
2021/05/08 03:31:21;;;;;;;;;;;18.20;57.90;;;;;;5031629;28;19921;-79
2021/05/08 03:33:51;;;;;;;;;;;18.20;58.00;;;;;;5048212;28;19913;-79
2021/05/08 03:36:17;;;;;;;;;;;18.10;58.00;;;;;;5027800;28;19914;-79
2021/05/08 03:38:43;;;;;;;;;;;18.10;57.90;;;;;;5033631;28;20313;-79
2021/05/08 03:41:20;;;;;;;;;;;18.20;57.90;;;;;;5034630;28;19960;-80
2021/05/08 03:43:46;;;;;;;;;;;18.20;57.90;;;;;;5048838;28;19925;-79
2021/05/08 03:46:12;;;;;;;;;;;18.20;58.10;;;;;;5033950;28;20409;-79
2021/05/08 03:48:42;;;;;;;;;;;18.10;58.10;;;;;;5034125;28;19960;-79
2021/05/08 03:51:08;;;;;;;;;;;18.10;58.10;;;;;;5034583;28;19913;-79
2021/05/08 03:53:33;;;;;;;;;;;18.20;58.10;;;;;;5033297;28;19920;-79
2021/05/08 03:56:01;;;;;;;;;;;18.10;58.20;;;;;;5037018;28;19917;-79
2021/05/08 03:58:31;;;;;;;;;;;18.10;58.10;;;;;;5031215;28;19996;-79
2021/05/08 04:00:57;;;;;;;;;;;18.10;58.10;;;;;;5033944;28;19925;-81
2021/05/08 04:03:36;;;;;;;;;;;18.20;58.10;;;;;;5025863;28;19991;-79
2021/05/08 04:06:02;;;;;;;;;;;18.20;58.40;;;;;;5047100;28;19913;-80
2021/05/08 04:08:27;;;;;;;;;;;18.20;58.50;;;;;;5034317;28;19922;-79
2021/05/08 04:10:53;;;;;;;;;;;18.20;58.50;;;;;;5053558;28;19917;-79
2021/05/08 04:13:18;;;;;;;;;;;18.20;58.50;;;;;;5033620;28;19913;-79
2021/05/08 04:15:44;;;;;;;;;;;18.20;58.60;;;;;;5053783;28;19916;-79
2021/05/08 04:18:10;;;;;;;;;;;18.10;58.70;;;;;;5053461;28;20030;-80
2021/05/08 04:20:36;;;;;;;;;;;18.20;58.70;;;;;;5037398;28;19986;-79
2021/05/08 04:23:04;;;;;;;;;;;18.10;58.70;;;;;;5036630;28;20764;-79
2021/05/08 04:25:30;;;;;;;;;;;18.20;58.70;;;;;;5035208;28;19920;-79
2021/05/08 04:27:56;;;;;;;;;;;18.20;58.80;;;;;;5030653;28;19913;-79
2021/05/08 04:30:22;;;;;;;;;;;18.20;58.80;;;;;;5050505;28;20063;-78
2021/05/08 04:32:52;;;;;;;;;;;18.20;58.70;;;;;;5030024;28;19920;-80
2021/05/08 04:35:18;;;;;;;;;;;18.20;58.80;;;;;;5027719;28;20243;-78
2021/05/08 04:37:44;;;;;;;;;;;18.20;58.80;;;;;;5034558;28;19921;-80
2021/05/08 04:40:10;;;;;;;;;;;18.20;58.70;;;;;;5048097;28;19979;-80
2021/05/08 04:42:40;;;;;;;;;;;18.20;58.80;;;;;;5052989;28;19917;-80
2021/05/08 04:45:06;;;;;;;;;;;18.20;58.70;;;;;;5047448;28;20326;-80
2021/05/08 04:47:32;;;;;;;;;;;18.20;58.70;;;;;;5031718;28;19913;-79
2021/05/08 04:50:01;;;;;;;;;;;18.20;58.60;;;;;;5033964;28;19994;-80
2021/05/08 04:52:38;;;;;;;;;;;18.20;58.50;;;;;;5035684;28;20273;-79
2021/05/08 04:55:11;;;;;;;;;;;18.20;58.50;;;;;;5050698;28;19967;-81
2021/05/08 04:57:38;;;;;;;;;;;18.20;58.50;;;;;;5041543;28;19913;-80
2021/05/08 05:00:09;;;;;;;;;;;18.20;58.40;;;;;;5034540;28;19962;-80
2021/05/08 05:02:34;;;;;;;;;;;18.20;58.40;;;;;;5028230;28;20016;-80
2021/05/08 05:04:59;;;;;;;;;;;18.20;58.30;;;;;;5051245;28;20339;-80
2021/05/08 05:07:25;;;;;;;;;;;18.20;58.30;;;;;;5051583;28;19921;-80
2021/05/08 05:09:55;;;;;;;;;;;18.30;58.30;;;;;;5034979;28;19928;-80
2021/05/08 05:12:21;;;;;;;;;;;18.20;58.20;;;;;;5031758;28;20251;-80
2021/05/08 05:14:46;;;;;;;;;;;18.30;58.10;;;;;;5049670;28;19979;-80
2021/05/08 05:17:12;;;;;;;;;;;18.30;58.10;;;;;;5025942;28;20381;-80
2021/05/08 05:19:38;;;;;;;;;;;18.30;58.10;;;;;;5034420;28;19992;-80
2021/05/08 05:22:04;;;;;;;;;;;18.20;58.00;;;;;;5024859;28;19924;-80
2021/05/08 05:24:33;;;;;;;;;;;18.20;58.00;;;;;;5034064;28;20035;-80
2021/05/08 05:26:58;;;;;;;;;;;18.30;58.00;;;;;;5054067;28;19917;-81
2021/05/08 05:29:24;;;;;;;;;;;18.30;57.90;;;;;;5045362;28;19919;-80
2021/05/08 05:31:49;;;;;;;;;;;18.20;57.90;;;;;;5048990;28;19919;-79
2021/05/08 05:34:15;;;;;;;;;;;18.30;57.80;;;;;;5034519;28;19913;-80
2021/05/08 05:36:41;;;;;;;;;;;18.20;57.80;;;;;;5030716;28;19913;-80
2021/05/08 05:39:07;;;;;;;;;;;18.30;57.80;;;;;;5048323;28;20378;-80
2021/05/08 05:41:33;;;;;;;;;;;18.30;57.80;;;;;;5051844;28;20035;-80
2021/05/08 05:44:00;;;;;;;;;;;18.30;57.70;;;;;;5038505;28;19955;-80
2021/05/08 05:46:31;;;;;;;;;;;18.30;57.60;;;;;;5036705;28;19975;-78
2021/05/08 05:48:58;;;;;;;;;;;18.30;57.60;;;;;;5051661;28;19913;-80
2021/05/08 05:51:28;;;;;;;;;;;18.30;57.60;;;;;;5051558;28;20350;-79
2021/05/08 05:53:59;;;;;;;;;;;18.30;57.50;;;;;;5034759;28;20271;-80
2021/05/08 05:56:32;;;;;;;;;;;18.30;57.50;;;;;;5037854;28;19920;-80
2021/05/08 05:59:01;;;;;;;;;;;18.30;57.50;;;;;;5032529;28;20328;-80
2021/05/08 06:01:27;;;;;;;;;;;18.30;57.50;;;;;;5049553;28;20282;-80
2021/05/08 06:03:57;;;;;;;;;;;18.30;57.50;;;;;;5034642;28;19967;-80
2021/05/08 06:06:26;;;;;;;;;;;18.30;57.40;;;;;;5035936;28;19917;-80
2021/05/08 06:08:55;;;;;;;;;;;18.30;57.50;;;;;;5036006;28;19963;-80
2021/05/08 06:11:24;;;;;;;;;;;18.30;57.50;;;;;;5034483;28;19920;-80
2021/05/08 06:14:03;;;;;;;;;;;18.30;57.50;;;;;;5029485;28;19971;-80
2021/05/08 06:16:29;;;;;;;;;;;18.30;57.50;;;;;;5033652;28;19913;-80
2021/05/08 06:19:01;;;;;;;;;;;18.30;57.50;;;;;;5019932;28;19914;-80
2021/05/08 06:21:39;;;;;;;;;;;18.30;57.50;;;;;;5029790;28;20255;-80
2021/05/08 06:24:05;;;;;;;;;;;18.30;57.50;;;;;;5040645;28;19925;-81
2021/05/08 06:26:45;;;;;;;;;;;18.30;57.50;;;;;;5019883;28;19913;-80
2021/05/08 06:29:15;;;;;;;;;;;18.30;57.50;;;;;;5026417;28;19920;-80
2021/05/08 06:31:46;;;;;;;;;;;18.30;57.50;;;;;;5017962;28;19913;-80
2021/05/08 06:34:22;;;;;;;;;;;18.40;57.50;;;;;;5029613;28;19920;-83
2021/05/08 06:36:53;;;;;;;;;;;18.30;57.50;;;;;;5030535;28;19924;-80
2021/05/08 06:39:23;;;;;;;;;;;18.40;57.50;;;;;;5031540;28;19913;-80
2021/05/08 06:41:54;;;;;;;;;;;18.40;57.50;;;;;;5018169;28;19925;-80
2021/05/08 06:44:19;;;;;;;;;;;18.30;57.50;;;;;;5036499;28;19999;-81
2021/05/08 06:46:46;;;;;;;;;;;18.40;57.50;;;;;;5028533;28;20412;-80
2021/05/08 06:49:17;;;;;;;;;;;18.40;57.50;;;;;;5046922;28;19959;-80
2021/05/08 06:51:42;;;;;;;;;;;18.40;57.50;;;;;;5055214;28;20491;-79
2021/05/08 06:54:08;;;;;;;;;;;18.40;57.50;;;;;;5035675;28;19913;-80
2021/05/08 06:56:33;;;;;;;;;;;18.40;57.50;;;;;;5032228;28;19913;-80
2021/05/08 06:59:00;;;;;;;;;;;18.40;57.50;;;;;;5032288;28;20386;-80
2021/05/08 07:01:31;;;;;;;;;;;18.40;57.50;;;;;;5033547;28;20309;-80
2021/05/08 07:03:56;;;;;;;;;;;18.50;57.50;;;;;;5020719;28;19925;-80
2021/05/08 07:06:30;;;;;;;;;;;18.40;57.50;;;;;;5034026;28;20394;-80
2021/05/08 07:09:09;;;;;;;;;;;18.40;57.40;;;;;;5041414;28;19967;-80
2021/05/08 07:11:35;;;;;;;;;;;18.40;57.40;;;;;;5037136;28;20020;-81
2021/05/08 07:14:05;;;;;;;;;;;18.50;57.40;;;;;;5055360;28;19952;-80
2021/05/08 07:16:39;;;;;;;;;;;18.50;57.50;;;;;;5036884;28;19914;-81
2021/05/08 07:19:10;;;;;;;;;;;18.50;57.50;;;;;;5027219;28;20342;-81
2021/05/08 07:21:40;;;;;;;;;;;18.50;57.50;;;;;;5052219;28;19916;-80
2021/05/08 07:24:06;;;;;;;;;;;18.50;57.50;;;;;;5054713;28;19924;-81
2021/05/08 07:26:33;;;;;;;;;;;18.50;57.40;;;;;;5049332;28;19914;-80
2021/05/08 07:29:00;;;;;;;;;;;18.50;57.50;;;;;;5029475;28;20281;-80
2021/05/08 07:31:31;;;;;;;;;;;18.50;57.40;;;;;;5036601;28;19983;-81
2021/05/08 07:33:57;;;;;;;;;;;18.50;57.50;;;;;;5045500;28;20416;-80
2021/05/08 07:36:24;;;;;;;;;;;18.50;57.40;;;;;;5025991;28;20302;-80
2021/05/08 07:38:50;;;;;;;;;;;18.50;57.40;;;;;;5052632;28;19912;-80
2021/05/08 07:41:18;;;;;;;;;;;18.50;57.40;;;;;;5051133;28;19916;-80
2021/05/08 07:43:44;;;;;;;;;;;18.50;57.50;;;;;;5050139;28;19943;-80
2021/05/08 07:46:12;;;;;;;;;;;18.50;57.60;;;;;;5053525;28;20015;-80
2021/05/08 07:48:50;;;;;;;;;;;18.50;57.40;;;;;;5034020;28;19914;-80
2021/05/08 07:51:16;;;;;;;;;;;18.50;57.50;;;;;;5052231;28;19913;-80
2021/05/08 07:53:46;;;;;;;;;;;18.50;57.40;;;;;;5052462;28;19936;-79
2021/05/08 07:56:17;;;;;;;;;;;18.60;57.60;;;;;;5034200;28;19913;-80
2021/05/08 07:58:42;;;;;;;;;;;18.50;57.40;;;;;;5032068;28;19927;-79
2021/05/08 08:01:08;;;;;;;;;;;18.60;57.70;;;;;;5036854;28;19917;-80
2021/05/08 08:03:33;;;;;;;;;;;18.60;57.80;;;;;;5054715;28;19917;-80
2021/05/08 08:05:59;;;;;;;;;;;18.60;57.90;;;;;;5039033;28;19912;-80
2021/05/08 08:08:28;;;;;;;;;;;18.60;58.00;;;;;;5039518;28;19971;-80
2021/05/08 08:10:59;;;;;;;;;;;18.60;58.20;;;;;;5036919;28;19928;-80
2021/05/08 08:13:26;;;;;;;;;;;18.60;58.20;;;;;;5046453;28;20178;-79
2021/05/08 08:15:51;;;;;;;;;;;18.60;58.00;;;;;;5052308;28;19974;-80
2021/05/08 08:18:19;;;;;;;;;;;18.60;58.00;;;;;;5035890;28;19955;-80
2021/05/08 08:20:45;;;;;;;;;;;18.70;58.30;;;;;;5032301;28;19917;-79
2021/05/08 08:23:15;;;;;;;;;;;18.60;58.20;;;;;;5053274;28;20373;-79
2021/05/08 08:25:46;;;;;;;;;;;18.70;58.30;;;;;;5036779;28;19920;-80
2021/05/08 08:28:11;;;;;;;;;;;18.70;58.30;;;;;;5054653;28;20016;-81
2021/05/08 08:30:37;;;;;;;;;;;18.70;58.30;;;;;;5023257;28;20408;-80
2021/05/08 08:33:05;;;;;;;;;;;18.70;58.40;;;;;;5027112;28;19916;-79
2021/05/08 08:35:31;;;;;;;;;;;18.70;58.50;;;;;;5047813;28;19913;-79
2021/05/08 08:37:56;;;;;;;;;;;18.70;58.50;;;;;;5037082;28;19927;-79
2021/05/08 08:40:22;;;;;;;;;;;18.70;58.50;;;;;;5023443;28;20398;-79
2021/05/08 08:42:52;;;;;;;;;;;18.70;58.50;;;;;;5048571;28;19928;-78
2021/05/08 08:45:24;;;;;;;;;;;18.70;58.60;;;;;;5050209;28;19967;-79
2021/05/08 08:47:50;;;;;;;;;;;18.70;58.90;;;;;;5025563;28;19939;-79
2021/05/08 08:50:16;;;;;;;;;;;18.80;58.80;;;;;;5034673;28;20375;-82
2021/05/08 08:52:41;;;;;;;;;;;18.70;58.80;;;;;;5053348;28;19920;-79
2021/05/08 08:55:12;;;;;;;;;;;18.80;58.90;;;;;;5041240;28;19913;-79
2021/05/08 08:57:43;;;;;;;;;;;18.80;58.90;;;;;;5048454;28;19917;-79
2021/05/08 09:00:15;;;;;;;;;;;18.80;59.00;;;;;;5037346;28;19917;-79
2021/05/08 09:02:42;;;;;;;;;;;18.80;59.20;;;;;;5034616;28;19930;-79
2021/05/08 09:05:08;;;;;;;;;;;18.80;59.10;;;;;;5048677;28;19913;-79
2021/05/08 09:07:35;;;;;;;;;;;18.80;59.10;;;;;;5041393;28;20048;-79
2021/05/08 09:10:00;;;;;;;;;;;18.80;59.20;;;;;;5034153;28;19921;-79
2021/05/08 09:12:27;;;;;;;;;;;18.80;59.10;;;;;;5035454;28;20395;-78
2021/05/08 09:14:57;;;;;;;;;;;18.80;59.20;;;;;;5047188;28;20011;-79
2021/05/08 09:17:27;;;;;;;;;;;18.80;59.10;;;;;;5030456;28;19924;-78
2021/05/08 09:20:00;;;;;;;;;;;18.80;59.20;;;;;;5034656;28;19917;-79
2021/05/08 09:22:33;;;;;;;;;;;18.80;59.40;;;;;;5048520;28;19917;-79
2021/05/08 09:25:00;;;;;;;;;;;18.80;59.60;;;;;;5029308;28;20367;-79
2021/05/08 09:27:45;;;;;;;;;;;18.80;59.50;;;;;;5048375;28;19913;-78
2021/05/08 09:30:14;;;;;;;;;;;18.80;59.60;;;;;;5028099;28;20286;-79
2021/05/08 09:32:59;;;;;;;;;;;18.90;59.80;;;;;;5051179;28;19930;-79
2021/05/08 09:35:25;;;;;;;;;;;18.80;59.80;;;;;;5050478;28;20374;-79
2021/05/08 09:38:04;;;;;;;;;;;18.80;59.80;;;;;;5034018;28;19952;-78
2021/05/08 09:40:30;;;;;;;;;;;18.80;59.90;;;;;;5031074;28;20006;-79
2021/05/08 09:42:56;;;;;;;;;;;18.90;59.80;;;;;;5050952;28;20004;-78
2021/05/08 09:45:23;;;;;;;;;;;18.90;59.90;;;;;;5052380;28;20339;-79
2021/05/08 09:47:49;;;;;;;;;;;18.90;60.00;;;;;;5052246;28;19912;-79
2021/05/08 09:50:18;;;;;;;;;;;18.90;60.00;;;;;;5032000;28;19927;-78
2021/05/08 09:52:45;;;;;;;;;;;18.90;60.10;;;;;;5052030;28;19921;-78
2021/05/08 09:55:12;;;;;;;;;;;19.00;60.00;;;;;;5052570;28;19913;-77
2021/05/08 09:57:49;;;;;;;;;;;19.00;59.90;;;;;;5026730;28;19938;-78
2021/05/08 10:00:27;;;;;;;;;;;19.00;60.00;;;;;;5032857;28;19917;-77
2021/05/08 10:03:10;;;;;;;;;;;19.00;60.00;;;;;;5031642;28;19925;-77
2021/05/08 10:05:37;;;;;;;;;;;19.00;60.10;;;;;;5052130;28;20066;-78
2021/05/08 10:08:03;;;;;;;;;;;19.00;60.10;;;;;;5035283;28;19939;-78
2021/05/08 10:10:29;;;;;;;;;;;19.00;60.10;;;;;;5035168;28;19927;-78
2021/05/08 10:12:55;;;;;;;;;;;19.00;60.20;;;;;;5026821;28;19921;-77
2021/05/08 10:15:21;;;;;;;;;;;19.00;60.10;;;;;;5027604;28;19929;-78
2021/05/08 10:17:47;;;;;;;;;;;19.00;60.20;;;;;;5028943;28;19913;-78
2021/05/08 10:20:14;;;;;;;;;;;19.10;60.20;;;;;;5032266;28;19921;-78
2021/05/08 10:22:59;;;;;;;;;;;19.10;60.10;;;;;;5037617;28;19924;-78
2021/05/08 10:25:25;;;;;;;;;;;19.10;60.10;;;;;;5040319;28;20260;-78
2021/05/08 10:27:51;;;;;;;;;;;19.10;60.00;;;;;;5035158;28;19917;-76
2021/05/08 10:30:22;;;;;;;;;;;19.10;60.00;;;;;;5031712;28;19980;-77
2021/05/08 10:32:48;;;;;;;;;;;19.20;59.90;;;;;;5032829;28;19913;-78
2021/05/08 10:35:14;;;;;;;;;;;19.20;60.00;;;;;;5023810;28;19913;-78
2021/05/08 10:38:00;;;;;;;;;;;19.20;59.90;;;;;;5033616;28;19936;-77
2021/05/08 10:40:28;;;;;;;;;;;19.20;59.90;;;;;;5031239;28;20004;-78
2021/05/08 10:42:54;;;;;;;;;;;19.20;59.90;;;;;;5033884;28;19917;-77
2021/05/08 10:45:20;;;;;;;;;;;19.20;59.90;;;;;;5036634;28;19909;-76
2021/05/08 10:50:30;;;;;;;;;;;19.20;59.90;;;;;;5033077;28;20358;-77
2021/05/08 10:53:25;;;;;;;;;;;19.30;59.90;;;;;;5029549;28;19913;-79
2021/05/08 10:55:58;;;;;;;;;;;19.30;59.90;;;;;;5034199;28;19924;-78
2021/05/08 10:58:24;;;;;;;;;;;19.30;60.00;;;;;;5035967;28;20263;-78
2021/05/08 11:00:56;;;;;;;;;;;19.30;59.90;;;;;;5039845;28;19963;-78
2021/05/08 11:03:42;;;;;;;;;;;19.30;60.00;;;;;;5025590;28;20016;-78
2021/05/08 11:06:18;;;;;;;;;;;19.30;60.00;;;;;;5033028;28;19913;-77
2021/05/08 11:08:48;;;;;;;;;;;19.30;59.90;;;;;;5034031;28;19921;-77
2021/05/08 11:11:24;;;;;;;;;;;19.30;59.90;;;;;;5034723;28;19917;-78
2021/05/08 11:13:55;;;;;;;;;;;19.30;59.90;;;;;;5050121;28;20252;-77
2021/05/08 11:16:21;;;;;;;;;;;19.30;59.90;;;;;;5050900;28;20274;-78
2021/05/08 11:18:48;;;;;;;;;;;19.20;59.90;;;;;;5035893;28;19913;-78
2021/05/08 11:21:30;;;;;;;;;;;19.30;59.80;;;;;;5049224;28;20415;-78
2021/05/08 11:24:14;;;;;;;;;;;19.30;59.80;;;;;;5041144;28;19917;-78
2021/05/08 11:26:41;;;;;;;;;;;19.30;59.80;;;;;;5020259;28;19913;-78
2021/05/08 11:29:36;;;;;;;;;;;19.30;59.80;;;;;;5035608;28;19924;-77
2021/05/08 11:32:04;;;;;;;;;;;19.20;59.80;;;;;;5020437;28;19913;-78
2021/05/08 11:34:34;;;;;;;;;;;19.30;59.80;;;;;;5033752;28;19916;-77
2021/05/08 11:37:11;;;;;;;;;;;19.30;59.80;;;;;;5034157;28;19921;-77
2021/05/08 11:39:56;;;;;;;;;;;19.20;59.70;;;;;;5031224;28;19917;-78
2021/05/08 11:42:25;;;;;;;;;;;19.20;59.70;;;;;;5034788;28;19917;-78
2021/05/08 11:44:58;;;;;;;;;;;19.30;59.70;;;;;;5035489;28;19914;-78
2021/05/08 11:47:30;;;;;;;;;;;19.20;59.80;;;;;;5035850;28;19979;-77
2021/05/08 11:49:56;;;;;;;;;;;19.20;59.80;;;;;;5035879;28;19916;-77
2021/05/08 11:52:42;;;;;;;;;;;19.20;59.80;;;;;;5046561;28;19913;-78
2021/05/08 11:55:18;;;;;;;;;;;19.30;59.80;;;;;;5034468;28;19913;-78
2021/05/08 11:58:03;;;;;;;;;;;19.30;59.80;;;;;;5032936;28;20310;-77
2021/05/08 12:00:30;;;;;;;;;;;19.30;59.80;;;;;;5050652;28;19921;-78
2021/05/08 12:03:20;;;;;;;;;;;19.30;59.70;;;;;;5040072;28;19949;-78
2021/05/08 12:05:46;;;;;;;;;;;19.30;59.70;;;;;;5036145;28;19909;-77
2021/05/08 12:08:12;;;;;;;;;;;19.30;59.60;;;;;;5035835;28;20008;-77
2021/05/08 12:10:39;;;;;;;;;;;19.30;59.60;;;;;;5054793;28;19909;-78
2021/05/08 12:13:05;;;;;;;;;;;19.30;59.50;;;;;;5053634;28;19912;-78
2021/05/08 12:15:32;;;;;;;;;;;19.30;59.50;;;;;;5057363;28;19962;-78
2021/05/08 12:17:58;;;;;;;;;;;19.30;59.50;;;;;;5029864;28;20397;-78
2021/05/08 12:20:28;;;;;;;;;;;19.30;59.50;;;;;;5043988;28;19917;-78
2021/05/08 12:22:56;;;;;;;;;;;19.30;59.40;;;;;;5050720;28;19916;-79
2021/05/08 12:25:22;;;;;;;;;;;19.30;59.40;;;;;;5035513;28;19956;-78
2021/05/08 12:27:48;;;;;;;;;;;19.30;59.30;;;;;;5039970;28;19935;-78
2021/05/08 12:30:14;;;;;;;;;;;19.30;59.30;;;;;;5032332;28;20386;-78
2021/05/08 12:32:52;;;;;;;;;;;19.30;59.30;;;;;;5051290;28;19912;-78
2021/05/08 12:35:19;;;;;;;;;;;19.30;59.20;;;;;;5032424;28;19934;-78
2021/05/08 12:37:45;;;;;;;;;;;19.30;59.20;;;;;;5040337;28;20363;-79
2021/05/08 12:40:11;;;;;;;;;;;19.30;59.10;;;;;;5053746;28;19998;-78
2021/05/08 12:42:46;;;;;;;;;;;19.30;59.10;;;;;;5039831;28;20278;-80
2021/05/08 12:45:13;;;;;;;;;;;19.30;59.10;;;;;;5053699;28;19921;-77
2021/05/08 12:47:46;;;;;;;;;;;19.30;59.40;;;;;;5051729;28;19913;-79
2021/05/08 12:50:12;;;;;;;;;;;19.30;59.30;;;;;;5053567;28;19916;-79
2021/05/08 12:52:38;;;;;;;;;;;19.30;59.30;;;;;;5035881;28;19913;-82
2021/05/08 12:55:04;;;;;;;;;;;19.30;59.20;;;;;;5050785;28;19944;-82
2021/05/08 12:57:32;;;;;;;;;;;19.40;59.20;;;;;;5047473;28;19913;-82
2021/05/08 12:59:59;;;;;;;;;;;19.30;59.20;;;;;;5050312;28;19913;-79
2021/05/08 13:02:27;;;;;;;;;;;19.30;59.70;;;;;;5034618;28;20389;-80
2021/05/08 13:04:53;;;;;;;;;;;19.30;59.60;;;;;;5040291;28;19917;-80
2021/05/08 13:07:20;;;;;;;;;;;19.40;59.60;;;;;;5048913;28;19926;-80
2021/05/08 13:09:46;;;;;;;;;;;19.40;59.60;;;;;;5039166;28;19928;-84
2021/05/08 13:12:12;;;;;;;;;;;19.40;59.70;;;;;;5035488;28;19913;-80
2021/05/08 13:14:38;;;;;;;;;;;19.40;59.80;;;;;;5056930;28;19913;-81
2021/05/08 13:17:06;;;;;;;;;;;19.40;59.70;;;;;;5032625;28;19924;-80
2021/05/08 13:19:31;;;;;;;;;;;19.40;59.80;;;;;;5029350;28;19913;-80
2021/05/08 13:21:57;;;;;;;;;;;19.40;59.70;;;;;;5044680;28;19943;-80
2021/05/08 13:24:26;;;;;;;;;;;19.40;59.70;;;;;;5029215;28;19921;-80
2021/05/08 13:26:52;;;;;;;;;;;19.50;59.60;;;;;;5034204;28;19927;-80
2021/05/08 13:29:23;;;;;;;;;;;19.50;59.50;;;;;;5041005;28;19913;-80
2021/05/08 13:31:49;;;;;;;;;;;19.50;59.40;;;;;;5039867;28;20011;-81
2021/05/08 13:34:14;;;;;;;;;;;19.50;59.30;;;;;;5048566;28;20022;-81
2021/05/08 13:36:48;;;;;;;;;;;19.50;59.30;;;;;;5034689;28;19990;-81
2021/05/08 13:39:18;;;;;;;;;;;19.50;59.50;;;;;;5050395;28;19933;-81
2021/05/08 13:41:49;;;;;;;;;;;19.50;59.60;;;;;;5035831;28;20011;-82
2021/05/08 13:44:19;;;;;;;;;;;19.50;59.70;;;;;;5035612;28;20387;-81
2021/05/08 13:46:46;;;;;;;;;;;19.50;59.70;;;;;;5047689;28;20289;-81
2021/05/08 13:49:11;;;;;;;;;;;19.50;59.70;;;;;;5035340;28;19913;-81
2021/05/08 13:51:37;;;;;;;;;;;19.50;59.70;;;;;;5050665;28;20022;-81
2021/05/08 13:54:03;;;;;;;;;;;19.50;59.70;;;;;;5052641;28;20413;-80
2021/05/08 13:56:29;;;;;;;;;;;19.50;59.70;;;;;;5038996;28;19920;-81
2021/05/08 13:59:06;;;;;;;;;;;19.50;59.60;;;;;;5052799;28;20000;-81
2021/05/08 14:01:46;;;;;;;;;;;19.50;59.60;;;;;;5051772;28;19986;-81
2021/05/08 14:04:12;;;;;;;;;;;19.60;59.50;;;;;;5030146;28;20366;-80
2021/05/08 14:06:45;;;;;;;;;;;19.60;59.40;;;;;;5029342;28;19919;-81
2021/05/08 14:09:10;;;;;;;;;;;19.60;59.40;;;;;;5032834;28;19921;-81
2021/05/08 14:11:41;;;;;;;;;;;19.60;59.40;;;;;;5031180;28;19917;-83
2021/05/08 14:14:06;;;;;;;;;;;19.60;59.40;;;;;;5052978;28;19999;-82
2021/05/08 14:16:37;;;;;;;;;;;19.60;59.30;;;;;;5033639;28;20012;-81
2021/05/08 14:19:03;;;;;;;;;;;19.60;59.30;;;;;;5030665;28;20405;-82
2021/05/08 14:21:33;;;;;;;;;;;19.60;59.30;;;;;;5033164;28;19920;-81
2021/05/08 14:23:59;;;;;;;;;;;19.50;59.30;;;;;;5051614;28;19916;-82
2021/05/08 14:26:24;;;;;;;;;;;19.60;59.30;;;;;;5034012;28;20028;-81
2021/05/08 14:28:50;;;;;;;;;;;19.50;59.20;;;;;;5033593;28;19986;-81
2021/05/08 14:31:18;;;;;;;;;;;19.60;59.20;;;;;;5047614;28;20332;-80